sensor_id;sensor_type;location;lat;lon;timestamp;pressure;altitude;pressure_sealevel;temperature;humidity
29315;BME280;16320;53.954;9.506;2023-04-26T00:02:16;101119.00;;;4.42;100.00
29315;BME280;16320;53.954;9.506;2023-04-26T00:05:23;101121.41;;;4.52;100.00
29315;BME280;16320;53.954;9.506;2023-04-26T00:08:28;101128.44;;;4.47;100.00
29315;BME280;16320;53.954;9.506;2023-04-26T00:11:32;101122.81;;;4.67;100.00
29315;BME280;16320;53.954;9.506;2023-04-26T00:14:36;101118.41;;;4.71;100.00
29315;BME280;16320;53.954;9.506;2023-04-26T00:17:41;101118.69;;;4.58;100.00
29315;BME280;16320;53.954;9.506;2023-04-26T00:20:46;101113.69;;;4.48;100.00
29315;BME280;16320;53.954;9.506;2023-04-26T00:23:50;101108.53;;;4.45;100.00
29315;BME280;16320;53.954;9.506;2023-04-26T00:26:55;101120.00;;;4.36;100.00
29315;BME280;16320;53.954;9.506;2023-04-26T00:30:00;101115.59;;;4.38;100.00
29315;BME280;16320;53.954;9.506;2023-04-26T00:33:04;101115.66;;;4.35;100.00
29315;BME280;16320;53.954;9.506;2023-04-26T00:36:09;101119.00;;;4.42;100.00
29315;BME280;16320;53.954;9.506;2023-04-26T00:39:14;101113.78;;;4.42;100.00
29315;BME280;16320;53.954;9.506;2023-04-26T00:42:19;101110.31;;;4.43;100.00
29315;BME280;16320;53.954;9.506;2023-04-26T00:45:23;101112.06;;;4.42;100.00
29315;BME280;16320;53.954;9.506;2023-04-26T00:48:27;101115.53;;;4.43;100.00
29315;BME280;16320;53.954;9.506;2023-04-26T00:51:32;101111.28;;;4.37;100.00
29315;BME280;16320;53.954;9.506;2023-04-26T00:54:36;101108.59;;;4.42;100.00
29315;BME280;16320;53.954;9.506;2023-04-26T00:57:44;101113.75;;;4.43;100.00
29315;BME280;16320;53.954;9.506;2023-04-26T01:00:49;101111.19;;;4.42;100.00
29315;BME280;16320;53.954;9.506;2023-04-26T01:03:55;101109.41;;;4.45;100.00
29315;BME280;16320;53.954;9.506;2023-04-26T01:07:01;101116.13;;;4.55;100.00
29315;BME280;16320;53.954;9.506;2023-04-26T01:10:06;101104.13;;;4.48;100.00
29315;BME280;16320;53.954;9.506;2023-04-26T01:13:13;101107.41;;;4.56;100.00
29315;BME280;16320;53.954;9.506;2023-04-26T01:16:18;101107.38;;;4.58;100.00
29315;BME280;16320;53.954;9.506;2023-04-26T01:19:23;101105.66;;;4.58;100.00
29315;BME280;16320;53.954;9.506;2023-04-26T01:22:32;101107.41;;;4.56;100.00
29315;BME280;16320;53.954;9.506;2023-04-26T01:25:37;101124.09;;;4.48;100.00
29315;BME280;16320;53.954;9.506;2023-04-26T01:28:41;101113.63;;;4.51;100.00
29315;BME280;16320;53.954;9.506;2023-04-26T01:31:47;101112.84;;;4.47;100.00
29315;BME280;16320;53.954;9.506;2023-04-26T01:34:51;101112.09;;;4.40;100.00
29315;BME280;16320;53.954;9.506;2023-04-26T01:37:56;101112.94;;;4.41;100.00
29315;BME280;16320;53.954;9.506;2023-04-26T01:41:00;101121.78;;;4.34;100.00
29315;BME280;16320;53.954;9.506;2023-04-26T01:44:05;101110.31;;;4.43;100.00
29315;BME280;16320;53.954;9.506;2023-04-26T01:47:10;101111.38;;;4.34;100.00
29315;BME280;16320;53.954;9.506;2023-04-26T01:50:14;101114.94;;;4.27;100.00
29315;BME280;16320;53.954;9.506;2023-04-26T01:53:18;101127.94;;;4.28;100.00
29315;BME280;16320;53.954;9.506;2023-04-26T01:56:23;101118.44;;;4.26;100.00
29315;BME280;16320;53.954;9.506;2023-04-26T01:59:27;101118.53;;;4.22;100.00
29315;BME280;16320;53.954;9.506;2023-04-26T02:02:32;101123.69;;;4.24;100.00
29315;BME280;16320;53.954;9.506;2023-04-26T02:05:36;101116.69;;;4.28;100.00
29315;BME280;16320;53.954;9.506;2023-04-26T02:08:40;101116.91;;;4.15;100.00
29315;BME280;16320;53.954;9.506;2023-04-26T02:11:45;101119.50;;;4.15;100.00
29315;BME280;16320;53.954;9.506;2023-04-26T02:14:49;101118.72;;;4.12;100.00
29315;BME280;16320;53.954;9.506;2023-04-26T02:17:54;101114.53;;;4.05;100.00
29315;BME280;16320;53.954;9.506;2023-04-26T02:20:59;101125.72;;;4.08;100.00
29315;BME280;16320;53.954;9.506;2023-04-26T02:24:04;101129.03;;;4.16;100.00
29315;BME280;16320;53.954;9.506;2023-04-26T02:27:08;101123.72;;;4.22;100.00
29315;BME280;16320;53.954;9.506;2023-04-26T02:30:12;101134.00;;;4.27;100.00
29315;BME280;16320;53.954;9.506;2023-04-26T02:33:17;101143.00;;;4.09;100.00
29315;BME280;16320;53.954;9.506;2023-04-26T02:36:21;101144.63;;;4.16;100.00
29315;BME280;16320;53.954;9.506;2023-04-26T02:39:25;101149.81;;;4.16;100.00
29315;BME280;16320;53.954;9.506;2023-04-26T02:42:30;101149.09;;;4.10;100.00
29315;BME280;16320;53.954;9.506;2023-04-26T02:45:40;101151.66;;;4.11;100.00
29315;BME280;16320;53.954;9.506;2023-04-26T02:48:45;101147.31;;;4.12;100.00
29315;BME280;16320;53.954;9.506;2023-04-26T02:51:49;101140.25;;;4.18;100.00
29315;BME280;16320;53.954;9.506;2023-04-26T02:54:54;101141.06;;;4.20;100.00
29315;BME280;16320;53.954;9.506;2023-04-26T02:57:59;101137.66;;;4.18;100.00
29315;BME280;16320;53.954;9.506;2023-04-26T03:01:03;101141.84;;;4.26;100.00
29315;BME280;16320;53.954;9.506;2023-04-26T03:04:09;101154.72;;;4.32;100.00
29315;BME280;16320;53.954;9.506;2023-04-26T03:07:15;101160.66;;;4.38;100.00
29315;BME280;16320;53.954;9.506;2023-04-26T03:10:20;101167.91;;;4.22;100.00
29315;BME280;16320;53.954;9.506;2023-04-26T03:13:24;101165.72;;;3.98;100.00
29315;BME280;16320;53.954;9.506;2023-04-26T03:16:29;101164.88;;;3.97;100.00
29315;BME280;16320;53.954;9.506;2023-04-26T03:19:33;101161.56;;;3.89;100.00
29315;BME280;16320;53.954;9.506;2023-04-26T03:22:37;101159.66;;;3.99;100.00
29315;BME280;16320;53.954;9.506;2023-04-26T03:25:42;101156.25;;;3.95;100.00
29315;BME280;16320;53.954;9.506;2023-04-26T03:28:46;101157.06;;;3.99;100.00
29315;BME280;16320;53.954;9.506;2023-04-26T03:31:51;101161.38;;;4.00;100.00
29315;BME280;16320;53.954;9.506;2023-04-26T03:34:56;101164.84;;;3.99;100.00
29315;BME280;16320;53.954;9.506;2023-04-26T03:38:01;101158.09;;;3.90;100.00
29315;BME280;16320;53.954;9.506;2023-04-26T03:41:05;101164.13;;;3.91;100.00
29315;BME280;16320;53.954;9.506;2023-04-26T03:44:09;101162.47;;;3.87;100.00
29315;BME280;16320;53.954;9.506;2023-04-26T03:47:15;101166.06;;;3.79;100.00
29315;BME280;16320;53.954;9.506;2023-04-26T03:50:19;101165.22;;;3.77;100.00
29315;BME280;16320;53.954;9.506;2023-04-26T03:53:24;101166.00;;;3.82;100.00
29315;BME280;16320;53.954;9.506;2023-04-26T03:56:28;101178.31;;;3.71;100.00
29315;BME280;16320;53.954;9.506;2023-04-26T03:59:33;101174.75;;;3.75;100.00
29315;BME280;16320;53.954;9.506;2023-04-26T04:02:37;101171.44;;;3.65;100.00
29315;BME280;16320;53.954;9.506;2023-04-26T04:05:42;101176.59;;;3.70;100.00
29315;BME280;16320;53.954;9.506;2023-04-26T04:08:47;101170.53;;;3.71;100.00
29315;BME280;16320;53.954;9.506;2023-04-26T04:11:51;101171.38;;;3.70;100.00
29315;BME280;16320;53.954;9.506;2023-04-26T04:14:56;101169.47;;;3.81;100.00
29315;BME280;16320;53.954;9.506;2023-04-26T04:18:02;101166.72;;;3.92;100.00
29315;BME280;16320;53.954;9.506;2023-04-26T04:21:07;101169.31;;;3.92;100.00
29315;BME280;16320;53.954;9.506;2023-04-26T04:24:11;101178.00;;;3.90;100.00
29315;BME280;16320;53.954;9.506;2023-04-26T04:27:16;101171.97;;;3.88;100.00
29315;BME280;16320;53.954;9.506;2023-04-26T04:30:20;101174.63;;;3.84;100.00
29315;BME280;16320;53.954;9.506;2023-04-26T04:33:25;101184.16;;;3.84;100.00
29315;BME280;16320;53.954;9.506;2023-04-26T04:36:31;101187.66;;;3.81;100.00
29315;BME280;16320;53.954;9.506;2023-04-26T04:39:37;101195.50;;;3.78;100.00
29315;BME280;16320;53.954;9.506;2023-04-26T04:42:42;101186.09;;;3.73;100.00
29315;BME280;16320;53.954;9.506;2023-04-26T04:45:48;101193.72;;;3.83;100.00
29315;BME280;16320;53.954;9.506;2023-04-26T04:48:53;101193.56;;;3.91;100.00
29315;BME280;16320;53.954;9.506;2023-04-26T04:51:57;101198.97;;;3.80;100.00
29315;BME280;16320;53.954;9.506;2023-04-26T04:55:03;101204.00;;;3.90;100.00
29315;BME280;16320;53.954;9.506;2023-04-26T04:58:07;101209.03;;;4.00;100.00
29315;BME280;16320;53.954;9.506;2023-04-26T05:01:12;101214.69;;;4.24;100.00
29315;BME280;16320;53.954;9.506;2023-04-26T05:04:16;101206.94;;;4.22;100.00
29315;BME280;16320;53.954;9.506;2023-04-26T05:07:21;101200.06;;;4.18;100.00
29315;BME280;16320;53.954;9.506;2023-04-26T05:10:27;101195.91;;;4.08;100.00
29315;BME280;16320;53.954;9.506;2023-04-26T05:13:32;101195.13;;;4.03;100.00
29315;BME280;16320;53.954;9.506;2023-04-26T05:16:36;101189.97;;;4.00;100.00
29315;BME280;16320;53.954;9.506;2023-04-26T05:19:41;101193.25;;;4.11;100.00
29315;BME280;16320;53.954;9.506;2023-04-26T05:22:47;101196.72;;;4.10;100.00
29315;BME280;16320;53.954;9.506;2023-04-26T05:25:52;101196.63;;;4.16;100.00
29315;BME280;16320;53.954;9.506;2023-04-26T05:28:56;101200.06;;;4.18;100.00
29315;BME280;16320;53.954;9.506;2023-04-26T05:32:01;101202.59;;;4.21;100.00
29315;BME280;16320;53.954;9.506;2023-04-26T05:35:06;101205.06;;;4.29;100.00
29315;BME280;16320;53.954;9.506;2023-04-26T05:38:11;101207.53;;;4.35;100.00
29315;BME280;16320;53.954;9.506;2023-04-26T05:41:16;101198.66;;;4.49;100.00
29315;BME280;16320;53.954;9.506;2023-04-26T05:44:20;101200.97;;;4.63;100.00
29315;BME280;16320;53.954;9.506;2023-04-26T05:47:25;101207.63;;;4.76;100.00
29315;BME280;16320;53.954;9.506;2023-04-26T05:50:29;101199.56;;;4.90;100.00
29315;BME280;16320;53.954;9.506;2023-04-26T05:53:34;101196.69;;;5.04;100.00
29315;BME280;16320;53.954;9.506;2023-04-26T05:56:39;101199.16;;;5.08;100.00
29315;BME280;16320;53.954;9.506;2023-04-26T05:59:43;101193.78;;;5.18;100.00
29315;BME280;16320;53.954;9.506;2023-04-26T06:02:48;101188.31;;;5.30;100.00
29315;BME280;16320;53.954;9.506;2023-04-26T06:05:52;101175.03;;;5.41;100.00
29315;BME280;16320;53.954;9.506;2023-04-26T06:08:57;101173.09;;;5.49;100.00
29315;BME280;16320;53.954;9.506;2023-04-26T06:12:01;101162.25;;;5.67;100.00
29315;BME280;16320;53.954;9.506;2023-04-26T06:15:07;101154.28;;;5.74;100.00
29315;BME280;16320;53.954;9.506;2023-04-26T06:18:12;101149.56;;;5.88;100.00
29315;BME280;16320;53.954;9.506;2023-04-26T06:21:16;101144.19;;;5.94;100.00
29315;BME280;16320;53.954;9.506;2023-04-26T06:24:22;101123.28;;;5.96;100.00
29315;BME280;16320;53.954;9.506;2023-04-26T06:27:28;101123.81;;;6.10;100.00
29315;BME280;16320;53.954;9.506;2023-04-26T06:30:32;101123.50;;;6.22;100.00
29315;BME280;16320;53.954;9.506;2023-04-26T06:33:37;101127.59;;;6.31;100.00
29315;BME280;16320;53.954;9.506;2023-04-26T06:36:41;101121.63;;;6.28;100.00
29315;BME280;16320;53.954;9.506;2023-04-26T06:39:46;101118.69;;;6.38;100.00
29315;BME280;16320;53.954;9.506;2023-04-26T06:42:50;101120.25;;;6.46;100.00
29315;BME280;16320;53.954;9.506;2023-04-26T06:45:55;101126.03;;;6.57;100.00
29315;BME280;16320;53.954;9.506;2023-04-26T06:49:00;101118.13;;;6.60;100.00
29315;BME280;16320;53.954;9.506;2023-04-26T06:52:04;101114.19;;;6.75;100.00
29315;BME280;16320;53.954;9.506;2023-04-26T06:55:12;101121.50;;;6.92;100.00
29315;BME280;16320;53.954;9.506;2023-04-26T06:58:17;101120.84;;;7.15;100.00
29315;BME280;16320;53.954;9.506;2023-04-26T07:01:21;101126.72;;;7.22;100.00
29315;BME280;16320;53.954;9.506;2023-04-26T07:04:26;101120.16;;;7.08;100.00
29315;BME280;16320;53.954;9.506;2023-04-26T07:07:31;101124.34;;;6.86;100.00
29315;BME280;16320;53.954;9.506;2023-04-26T07:10:38;101128.56;;;6.60;100.00
29315;BME280;16320;53.954;9.506;2023-04-26T07:13:42;101139.16;;;6.54;100.00
29315;BME280;16320;53.954;9.506;2023-04-26T07:16:47;101141.84;;;6.51;100.00
29315;BME280;16320;53.954;9.506;2023-04-26T07:19:51;101142.41;;;6.62;100.00
29315;BME280;16320;53.954;9.506;2023-04-26T07:22:58;101147.63;;;6.92;100.00
29315;BME280;16320;53.954;9.506;2023-04-26T07:26:02;101143.06;;;6.99;100.00
29315;BME280;16320;53.954;9.506;2023-04-26T07:29:08;101147.66;;;6.90;100.00
29315;BME280;16320;53.954;9.506;2023-04-26T07:32:12;101154.44;;;6.97;100.00
29315;BME280;16320;53.954;9.506;2023-04-26T07:35:17;101150.91;;;6.99;100.00
29315;BME280;16320;53.954;9.506;2023-04-26T07:38:21;101145.81;;;6.95;100.00
29315;BME280;16320;53.954;9.506;2023-04-26T07:41:26;101146.56;;;6.99;100.00
29315;BME280;16320;53.954;9.506;2023-04-26T07:44:30;101156.63;;;7.11;100.00
29315;BME280;16320;53.954;9.506;2023-04-26T07:47:36;101156.59;;;7.41;100.00
29315;BME280;16320;53.954;9.506;2023-04-26T07:50:40;101157.34;;;7.45;100.00
29315;BME280;16320;53.954;9.506;2023-04-26T07:53:44;101166.38;;;7.35;100.00
29315;BME280;16320;53.954;9.506;2023-04-26T07:56:49;101178.88;;;6.95;100.00
29315;BME280;16320;53.954;9.506;2023-04-26T07:59:53;101183.41;;;6.58;100.00
29315;BME280;16320;53.954;9.506;2023-04-26T08:02:57;101196.50;;;6.57;100.00
29315;BME280;16320;53.954;9.506;2023-04-26T08:06:02;101199.75;;;6.65;100.00
29315;BME280;16320;53.954;9.506;2023-04-26T08:09:07;101214.56;;;6.65;100.00
29315;BME280;16320;53.954;9.506;2023-04-26T08:12:11;101216.84;;;6.75;100.00
29315;BME280;16320;53.954;9.506;2023-04-26T08:15:16;101206.25;;;6.82;100.00
29315;BME280;16320;53.954;9.506;2023-04-26T08:18:21;101200.59;;;6.97;100.00
29315;BME280;16320;53.954;9.506;2023-04-26T08:21:25;101196.63;;;7.13;100.00
29315;BME280;16320;53.954;9.506;2023-04-26T08:24:29;101186.94;;;7.45;100.00
29315;BME280;16320;53.954;9.506;2023-04-26T08:27:34;101184.38;;;7.72;100.00
29315;BME280;16320;53.954;9.506;2023-04-26T08:30:39;101191.84;;;8.10;100.00
29315;BME280;16320;53.954;9.506;2023-04-26T08:33:44;101176.84;;;7.90;100.00
29315;BME280;16320;53.954;9.506;2023-04-26T08:36:48;101185.88;;;7.79;100.00
29315;BME280;16320;53.954;9.506;2023-04-26T08:39:53;101174.63;;;7.77;100.00
29315;BME280;16320;53.954;9.506;2023-04-26T08:42:58;101163.94;;;7.57;100.00
29315;BME280;16320;53.954;9.506;2023-04-26T08:46:06;101166.13;;;7.42;100.00
29315;BME280;16320;53.954;9.506;2023-04-26T08:49:40;101165.47;;;7.64;100.00
29315;BME280;16320;53.954;9.506;2023-04-26T08:52:48;101164.44;;;7.95;100.00
29315;BME280;16320;53.954;9.506;2023-04-26T08:55:54;101165.75;;;8.08;100.00
29315;BME280;16320;53.954;9.506;2023-04-26T08:58:59;101158.28;;;8.22;100.00
29315;BME280;16320;53.954;9.506;2023-04-26T09:02:06;101158.41;;;8.68;100.00
29315;BME280;16320;53.954;9.506;2023-04-26T09:05:11;101159.53;;;8.85;100.00
29315;BME280;16320;53.954;9.506;2023-04-26T09:08:16;101166.94;;;8.50;100.00
29315;BME280;16320;53.954;9.506;2023-04-26T09:11:21;101196.84;;;8.17;100.00
29315;BME280;16320;53.954;9.506;2023-04-26T09:14:26;101215.69;;;7.74;100.00
29315;BME280;16320;53.954;9.506;2023-04-26T09:17:38;101225.25;;;7.46;100.00
29315;BME280;16320;53.954;9.506;2023-04-26T09:24:05;101250.56;;;6.85;100.00
29315;BME280;16320;53.954;9.506;2023-04-26T09:27:10;101261.47;;;6.68;100.00
29315;BME280;16320;53.954;9.506;2023-04-26T09:30:17;101262.09;;;6.77;100.00
29315;BME280;16320;53.954;9.506;2023-04-26T09:33:23;101265.81;;;6.99;100.00
29315;BME280;16320;53.954;9.506;2023-04-26T09:36:28;101246.34;;;7.10;100.00
29315;BME280;16320;53.954;9.506;2023-04-26T09:39:38;101251.13;;;7.56;100.00
29315;BME280;16320;53.954;9.506;2023-04-26T09:42:43;101232.56;;;7.92;100.00
29315;BME280;16320;53.954;9.506;2023-04-26T09:45:54;101226.22;;;8.25;100.00
29315;BME280;16320;53.954;9.506;2023-04-26T09:49:00;101217.03;;;8.39;100.00
29315;BME280;16320;53.954;9.506;2023-04-26T09:52:05;101203.13;;;8.37;100.00
29315;BME280;16320;53.954;9.506;2023-04-26T09:55:10;101204.66;;;8.44;100.00
29315;BME280;16320;53.954;9.506;2023-04-26T09:58:28;101199.41;;;8.69;100.00
29315;BME280;16320;53.954;9.506;2023-04-26T10:01:32;101198.56;;;8.92;100.00
29315;BME280;16320;53.954;9.506;2023-04-26T10:04:37;101199.94;;;8.79;100.00
29315;BME280;16320;53.954;9.506;2023-04-26T10:07:43;101197.88;;;8.87;100.00
29315;BME280;16320;53.954;9.506;2023-04-26T10:10:48;101195.84;;;9.18;100.00
29315;BME280;16320;53.954;9.506;2023-04-26T10:13:53;101204.25;;;9.04;100.00
29315;BME280;16320;53.954;9.506;2023-04-26T10:16:58;101207.03;;;8.99;100.00
29315;BME280;16320;53.954;9.506;2023-04-26T10:20:06;101205.03;;;8.82;100.00
29315;BME280;16320;53.954;9.506;2023-04-26T10:23:19;101210.44;;;9.01;100.00
29315;BME280;16320;53.954;9.506;2023-04-26T10:26:51;101208.44;;;9.31;100.00
29315;BME280;16320;53.954;9.506;2023-04-26T10:33:11;101194.50;;;9.96;100.00
29315;BME280;16320;53.954;9.506;2023-04-26T10:36:17;101184.22;;;10.12;100.00
29315;BME280;16320;53.954;9.506;2023-04-26T10:39:21;101184.06;;;9.94;100.00
29315;BME280;16320;53.954;9.506;2023-04-26T10:42:28;101182.44;;;9.92;100.00
29315;BME280;16320;53.954;9.506;2023-04-26T10:45:36;101186.50;;;10.60;100.00
29315;BME280;16320;53.954;9.506;2023-04-26T10:48:41;101195.66;;;10.72;100.00
29315;BME280;16320;53.954;9.506;2023-04-26T10:52:17;101210.34;;;10.76;100.00
29315;BME280;16320;53.954;9.506;2023-04-26T10:55:39;101216.03;;;10.04;100.00
29315;BME280;16320;53.954;9.506;2023-04-26T10:58:47;101211.41;;;9.22;100.00
29315;BME280;16320;53.954;9.506;2023-04-26T11:01:51;101223.25;;;8.61;100.00
29315;BME280;16320;53.954;9.506;2023-04-26T11:04:56;101227.59;;;9.78;100.00
29315;BME280;16320;53.954;9.506;2023-04-26T11:08:25;101200.53;;;10.40;100.00
29315;BME280;16320;53.954;9.506;2023-04-26T11:11:30;101196.44;;;10.13;100.00
29315;BME280;16320;53.954;9.506;2023-04-26T11:14:36;101188.34;;;9.54;100.00
29315;BME280;16320;53.954;9.506;2023-04-26T11:17:40;101218.72;;;8.90;100.00
29315;BME280;16320;53.954;9.506;2023-04-26T11:20:45;101220.94;;;8.52;100.00
29315;BME280;16320;53.954;9.506;2023-04-26T11:23:54;101246.59;;;8.41;100.00
29315;BME280;16320;53.954;9.506;2023-04-26T11:26:58;101234.09;;;9.00;100.00
29315;BME280;16320;53.954;9.506;2023-04-26T11:30:04;101224.06;;;9.57;100.00
29315;BME280;16320;53.954;9.506;2023-04-26T11:33:19;101201.13;;;9.84;100.00
29315;BME280;16320;53.954;9.506;2023-04-26T11:36:25;101195.59;;;10.12;100.00
29315;BME280;16320;53.954;9.506;2023-04-26T11:39:31;101202.16;;;10.22;100.00
29315;BME280;16320;53.954;9.506;2023-04-26T11:42:36;101197.16;;;10.57;100.00
29315;BME280;16320;53.954;9.506;2023-04-26T11:45:41;101203.88;;;10.84;100.00
29315;BME280;16320;53.954;9.506;2023-04-26T11:48:45;101210.56;;;10.91;100.00
29315;BME280;16320;53.954;9.506;2023-04-26T11:51:50;101195.72;;;10.50;100.00
29315;BME280;16320;53.954;9.506;2023-04-26T11:55:04;101203.59;;;10.71;100.00
29315;BME280;16320;53.954;9.506;2023-04-26T11:58:14;101200.50;;;11.20;100.00
29315;BME280;16320;53.954;9.506;2023-04-26T12:01:29;101211.00;;;11.39;100.00
29315;BME280;16320;53.954;9.506;2023-04-26T12:04:34;101211.28;;;10.94;100.00
29315;BME280;16320;53.954;9.506;2023-04-26T12:07:39;101220.09;;;11.50;100.00
29315;BME280;16320;53.954;9.506;2023-04-26T12:10:46;101218.34;;;12.40;100.00
29315;BME280;16320;53.954;9.506;2023-04-26T12:13:50;101214.16;;;12.53;100.00
29315;BME280;16320;53.954;9.506;2023-04-26T12:16:54;101240.78;;;11.39;100.00
29315;BME280;16320;53.954;9.506;2023-04-26T12:19:59;101261.53;;;10.04;100.00
29315;BME280;16320;53.954;9.506;2023-04-26T12:23:08;101289.28;;;9.42;100.00
29315;BME280;16320;53.954;9.506;2023-04-26T12:26:13;101284.69;;;8.76;100.00
29315;BME280;16320;53.954;9.506;2023-04-26T12:29:18;101296.78;;;8.55;100.00
29315;BME280;16320;53.954;9.506;2023-04-26T12:32:24;101293.03;;;8.63;100.00
29315;BME280;16320;53.954;9.506;2023-04-26T12:35:30;101298.38;;;9.10;100.00
29315;BME280;16320;53.954;9.506;2023-04-26T12:38:34;101285.44;;;10.19;100.00
29315;BME280;16320;53.954;9.506;2023-04-26T12:41:40;101255.91;;;10.96;100.00
29315;BME280;16320;53.954;9.506;2023-04-26T12:44:45;101256.34;;;10.46;100.00
29315;BME280;16320;53.954;9.506;2023-04-26T12:47:50;101265.41;;;9.94;100.00
29315;BME280;16320;53.954;9.506;2023-04-26T12:50:55;101249.88;;;10.73;100.00
29315;BME280;16320;53.954;9.506;2023-04-26T12:54:00;101246.66;;;11.06;100.00
29315;BME280;16320;53.954;9.506;2023-04-26T12:57:05;101249.22;;;10.48;100.00
29315;BME280;16320;53.954;9.506;2023-04-26T13:00:14;101263.31;;;9.36;100.00
29315;BME280;16320;53.954;9.506;2023-04-26T13:03:20;101270.56;;;9.06;100.00
29315;BME280;16320;53.954;9.506;2023-04-26T13:06:25;101264.22;;;8.63;100.00
29315;BME280;16320;53.954;9.506;2023-04-26T13:09:32;101267.81;;;8.60;100.00
29315;BME280;16320;53.954;9.506;2023-04-26T13:12:37;101267.97;;;8.55;100.00
29315;BME280;16320;53.954;9.506;2023-04-26T13:15:43;101263.22;;;8.67;100.00
29315;BME280;16320;53.954;9.506;2023-04-26T13:18:47;101265.03;;;8.65;100.00
29315;BME280;16320;53.954;9.506;2023-04-26T13:21:52;101275.47;;;8.66;100.00
29315;BME280;16320;53.954;9.506;2023-04-26T13:24:56;101277.56;;;8.56;100.00
29315;BME280;16320;53.954;9.506;2023-04-26T13:28:03;101279.25;;;8.57;100.00
29315;BME280;16320;53.954;9.506;2023-04-26T13:31:07;101282.25;;;8.72;100.00
29315;BME280;16320;53.954;9.506;2023-04-26T13:34:11;101287.75;;;8.89;100.00
29315;BME280;16320;53.954;9.506;2023-04-26T13:37:16;101282.84;;;9.27;100.00
29315;BME280;16320;53.954;9.506;2023-04-26T13:40:23;101276.75;;;10.17;100.00
29315;BME280;16320;53.954;9.506;2023-04-26T13:43:27;101274.38;;;9.66;100.00
29315;BME280;16320;53.954;9.506;2023-04-26T13:46:32;101286.38;;;9.50;100.00
29315;BME280;16320;53.954;9.506;2023-04-26T13:49:38;101291.53;;;9.29;100.00
29315;BME280;16320;53.954;9.506;2023-04-26T13:52:45;101286.59;;;8.96;100.00
29315;BME280;16320;53.954;9.506;2023-04-26T13:55:49;101292.59;;;9.00;100.00
29315;BME280;16320;53.954;9.506;2023-04-26T13:58:54;101286.97;;;9.11;100.00
29315;BME280;16320;53.954;9.506;2023-04-26T14:02:06;101288.00;;;9.07;100.00
29315;BME280;16320;53.954;9.506;2023-04-26T14:05:10;101288.53;;;8.91;100.00
29315;BME280;16320;53.954;9.506;2023-04-26T14:08:15;101296.50;;;8.88;100.00
29315;BME280;16320;53.954;9.506;2023-04-26T14:11:19;101290.66;;;9.29;100.00
29315;BME280;16320;53.954;9.506;2023-04-26T14:14:24;101288.09;;;9.51;100.00
29315;BME280;16320;53.954;9.506;2023-04-26T14:17:29;101280.88;;;10.65;100.00
29315;BME280;16320;53.954;9.506;2023-04-26T14:20:33;101282.09;;;10.58;100.00
29315;BME280;16320;53.954;9.506;2023-04-26T14:23:41;101288.06;;;9.75;100.00
29315;BME280;16320;53.954;9.506;2023-04-26T14:26:46;101299.78;;;9.42;100.00
29315;BME280;16320;53.954;9.506;2023-04-26T14:29:51;101295.91;;;9.52;100.00
29315;BME280;16320;53.954;9.506;2023-04-26T14:32:56;101295.56;;;9.84;100.00
29315;BME280;16320;53.954;9.506;2023-04-26T14:36:00;101291.53;;;10.41;100.00
29315;BME280;16320;53.954;9.506;2023-04-26T14:39:05;101300.59;;;9.90;100.00
29315;BME280;16320;53.954;9.506;2023-04-26T14:42:10;101302.69;;;9.58;100.00
29315;BME280;16320;53.954;9.506;2023-04-26T14:45:27;101295.41;;;10.11;100.00
29315;BME280;16320;53.954;9.506;2023-04-26T14:48:51;101291.41;;;11.05;100.00
29315;BME280;16320;53.954;9.506;2023-04-26T14:51:55;101289.97;;;11.75;100.00
29315;BME280;16320;53.954;9.506;2023-04-26T14:55:00;101289.19;;;11.54;100.00
29315;BME280;16320;53.954;9.506;2023-04-26T14:58:07;101298.09;;;10.30;100.00
29315;BME280;16320;53.954;9.506;2023-04-26T15:01:11;101293.53;;;10.96;100.00
29315;BME280;16320;53.954;9.506;2023-04-26T15:04:16;101290.66;;;11.79;100.00
29315;BME280;16320;53.954;9.506;2023-04-26T15:07:21;101295.03;;;11.23;100.00
29315;BME280;16320;53.954;9.506;2023-04-26T15:10:35;101300.56;;;10.96;100.00
29315;BME280;16320;53.954;9.506;2023-04-26T15:13:40;101308.53;;;10.11;100.00
29315;BME280;16320;53.954;9.506;2023-04-26T15:16:51;101316.69;;;9.81;100.00
29315;BME280;16320;53.954;9.506;2023-04-26T15:19:55;101311.81;;;9.48;100.00
29315;BME280;16320;53.954;9.506;2023-04-26T15:23:00;101316.22;;;9.69;100.00
29315;BME280;16320;53.954;9.506;2023-04-26T15:26:04;101318.25;;;9.63;100.00
29315;BME280;16320;53.954;9.506;2023-04-26T15:29:09;101311.53;;;9.32;100.00
29315;BME280;16320;53.954;9.506;2023-04-26T15:32:13;101315.34;;;9.23;100.00
29315;BME280;16320;53.954;9.506;2023-04-26T15:35:18;101314.88;;;9.12;100.00
29315;BME280;16320;53.954;9.506;2023-04-26T15:38:22;101312.97;;;9.41;100.00
29315;BME280;16320;53.954;9.506;2023-04-26T15:41:27;101309.19;;;9.48;100.00
29315;BME280;16320;53.954;9.506;2023-04-26T15:44:31;101312.50;;;9.53;100.00
29315;BME280;16320;53.954;9.506;2023-04-26T15:47:35;101314.31;;;9.51;100.00
29315;BME280;16320;53.954;9.506;2023-04-26T15:50:41;101315.00;;;9.56;100.00
29315;BME280;16320;53.954;9.506;2023-04-26T15:53:46;101317.28;;;9.65;100.00
29315;BME280;16320;53.954;9.506;2023-04-26T15:56:50;101324.81;;;9.51;100.00
29315;BME280;16320;53.954;9.506;2023-04-26T15:59:56;101329.56;;;9.41;100.00
29315;BME280;16320;53.954;9.506;2023-04-26T16:03:00;101329.44;;;9.44;100.00
29315;BME280;16320;53.954;9.506;2023-04-26T16:06:05;101333.53;;;9.28;100.00
29315;BME280;16320;53.954;9.506;2023-04-26T16:09:10;101327.66;;;9.21;100.00
29315;BME280;16320;53.954;9.506;2023-04-26T16:12:29;101339.44;;;9.09;100.00
29315;BME280;16320;53.954;9.506;2023-04-26T16:15:34;101344.94;;;9.02;100.00